sensor_id;sensor_type;location;lat;lon;timestamp;pressure;altitude;pressure_sealevel;temperature
76394;BMP180;65216;51.090;-115.352;2023-07-31T00:01:41;86799.60;;;23.44
76394;BMP180;65216;51.090;-115.352;2023-07-31T00:04:17;86810.80;;;23.44
76394;BMP180;65216;51.090;-115.352;2023-07-31T00:07:15;86812.00;;;23.50
76394;BMP180;65216;51.090;-115.352;2023-07-31T00:09:46;86797.80;;;23.50
76394;BMP180;65216;51.090;-115.352;2023-07-31T00:12:12;86794.60;;;23.50
76394;BMP180;65216;51.090;-115.352;2023-07-31T00:14:39;86805.00;;;23.50
76394;BMP180;65216;51.090;-115.352;2023-07-31T00:17:06;86801.00;;;23.50
76394;BMP180;65216;51.090;-115.352;2023-07-31T00:19:33;86808.20;;;23.50
76394;BMP180;65216;51.090;-115.352;2023-07-31T00:22:00;86818.60;;;23.50
76394;BMP180;65216;51.090;-115.352;2023-07-31T00:24:27;86855.00;;;23.50
76394;BMP180;65216;51.090;-115.352;2023-07-31T00:26:54;86848.80;;;23.40
76394;BMP180;65216;51.090;-115.352;2023-07-31T00:29:21;86851.80;;;23.40
76394;BMP180;65216;51.090;-115.352;2023-07-31T00:31:48;86864.40;;;23.40
76394;BMP180;65216;51.090;-115.352;2023-07-31T00:34:18;86871.20;;;23.40
76394;BMP180;65216;51.090;-115.352;2023-07-31T00:36:45;86888.60;;;23.30
76394;BMP180;65216;51.090;-115.352;2023-07-31T00:39:12;86918.40;;;23.30
76394;BMP180;65216;51.090;-115.352;2023-07-31T00:41:40;86943.40;;;23.28
76394;BMP180;65216;51.090;-115.352;2023-07-31T00:44:07;86983.80;;;23.20
76394;BMP180;65216;51.090;-115.352;2023-07-31T00:46:33;87024.40;;;23.20
76394;BMP180;65216;51.090;-115.352;2023-07-31T00:49:01;87032.00;;;23.20
76394;BMP180;65216;51.090;-115.352;2023-07-31T00:51:28;87027.40;;;23.20
76394;BMP180;65216;51.090;-115.352;2023-07-31T00:53:59;87001.40;;;23.10
76394;BMP180;65216;51.090;-115.352;2023-07-31T00:56:28;87034.60;;;23.10
76394;BMP180;65216;51.090;-115.352;2023-07-31T00:58:56;87053.20;;;23.10
76394;BMP180;65216;51.090;-115.352;2023-07-31T01:01:24;87057.20;;;23.10
76394;BMP180;65216;51.090;-115.352;2023-07-31T01:03:53;87063.60;;;23.04
76394;BMP180;65216;51.090;-115.352;2023-07-31T01:10:15;87059.60;;;23.00
76394;BMP180;65216;51.090;-115.352;2023-07-31T01:12:47;87062.00;;;23.00
76394;BMP180;65216;51.090;-115.352;2023-07-31T01:15:15;87091.80;;;22.98
76394;BMP180;65216;51.090;-115.352;2023-07-31T01:17:44;87097.00;;;23.00
76394;BMP180;65216;51.090;-115.352;2023-07-31T01:20:22;87098.00;;;23.00
76394;BMP180;65216;51.090;-115.352;2023-07-31T01:26:12;87106.60;;;22.90
76394;BMP180;65216;51.090;-115.352;2023-07-31T01:31:14;87080.60;;;22.88
76394;BMP180;65216;51.090;-115.352;2023-07-31T01:33:43;87073.00;;;22.86
76394;BMP180;65216;51.090;-115.352;2023-07-31T01:36:13;87057.00;;;22.82
76394;BMP180;65216;51.090;-115.352;2023-07-31T01:38:40;87051.60;;;22.90
76394;BMP180;65216;51.090;-115.352;2023-07-31T01:41:10;87047.60;;;22.90
76394;BMP180;65216;51.090;-115.352;2023-07-31T01:43:40;87033.20;;;22.88
76394;BMP180;65216;51.090;-115.352;2023-07-31T01:46:09;87041.80;;;22.90
76394;BMP180;65216;51.090;-115.352;2023-07-31T01:48:36;87034.00;;;22.84
76394;BMP180;65216;51.090;-115.352;2023-07-31T01:51:03;87035.80;;;22.88
76394;BMP180;65216;51.090;-115.352;2023-07-31T01:53:34;87038.00;;;22.90
76394;BMP180;65216;51.090;-115.352;2023-07-31T01:56:01;87037.20;;;22.90
76394;BMP180;65216;51.090;-115.352;2023-07-31T01:58:28;87033.60;;;22.90
76394;BMP180;65216;51.090;-115.352;2023-07-31T02:00:58;87035.00;;;22.90
76394;BMP180;65216;51.090;-115.352;2023-07-31T02:03:24;87029.00;;;22.90
76394;BMP180;65216;51.090;-115.352;2023-07-31T02:05:51;87026.80;;;22.90
76394;BMP180;65216;51.090;-115.352;2023-07-31T02:08:20;87040.00;;;22.90
76394;BMP180;65216;51.090;-115.352;2023-07-31T02:10:47;87050.40;;;22.90
76394;BMP180;65216;51.090;-115.352;2023-07-31T02:13:14;87054.80;;;22.90
76394;BMP180;65216;51.090;-115.352;2023-07-31T02:15:48;87065.40;;;22.90
76394;BMP180;65216;51.090;-115.352;2023-07-31T02:18:15;87062.60;;;22.84
76394;BMP180;65216;51.090;-115.352;2023-07-31T02:20:42;87054.60;;;22.80
76394;BMP180;65216;51.090;-115.352;2023-07-31T02:23:10;87032.80;;;22.80
76394;BMP180;65216;51.090;-115.352;2023-07-31T02:25:36;87024.60;;;22.80
76394;BMP180;65216;51.090;-115.352;2023-07-31T02:28:04;87034.60;;;22.80
76394;BMP180;65216;51.090;-115.352;2023-07-31T02:30:31;87048.60;;;22.80
76394;BMP180;65216;51.090;-115.352;2023-07-31T02:33:01;87048.00;;;22.70
76394;BMP180;65216;51.090;-115.352;2023-07-31T02:35:27;87053.80;;;22.70
76394;BMP180;65216;51.090;-115.352;2023-07-31T02:37:55;87063.20;;;22.70
76394;BMP180;65216;51.090;-115.352;2023-07-31T02:40:22;87058.00;;;22.70
76394;BMP180;65216;51.090;-115.352;2023-07-31T02:42:50;87062.60;;;22.68
76394;BMP180;65216;51.090;-115.352;2023-07-31T02:45:16;87056.00;;;22.62
76394;BMP180;65216;51.090;-115.352;2023-07-31T02:47:43;87064.60;;;22.60
76394;BMP180;65216;51.090;-115.352;2023-07-31T02:50:10;87069.80;;;22.60
76394;BMP180;65216;51.090;-115.352;2023-07-31T02:52:37;87080.40;;;22.60
76394;BMP180;65216;51.090;-115.352;2023-07-31T02:55:07;87080.00;;;22.60
76394;BMP180;65216;51.090;-115.352;2023-07-31T02:57:38;87085.00;;;22.60
76394;BMP180;65216;51.090;-115.352;2023-07-31T03:00:06;87083.40;;;22.54
76394;BMP180;65216;51.090;-115.352;2023-07-31T03:02:33;87089.00;;;22.50
76394;BMP180;65216;51.090;-115.352;2023-07-31T03:05:00;87089.40;;;22.50
76394;BMP180;65216;51.090;-115.352;2023-07-31T03:07:30;87103.20;;;22.50
76394;BMP180;65216;51.090;-115.352;2023-07-31T03:10:00;87114.40;;;22.50
76394;BMP180;65216;51.090;-115.352;2023-07-31T03:12:28;87122.80;;;22.50
76394;BMP180;65216;51.090;-115.352;2023-07-31T03:14:54;87124.80;;;22.50
76394;BMP180;65216;51.090;-115.352;2023-07-31T03:17:21;87117.80;;;22.42
76394;BMP180;65216;51.090;-115.352;2023-07-31T03:19:49;87116.00;;;22.40
76394;BMP180;65216;51.090;-115.352;2023-07-31T03:22:15;87120.40;;;22.40
76394;BMP180;65216;51.090;-115.352;2023-07-31T03:24:42;87115.60;;;22.40
76394;BMP180;65216;51.090;-115.352;2023-07-31T03:27:12;87131.00;;;22.40
76394;BMP180;65216;51.090;-115.352;2023-07-31T03:29:39;87149.00;;;22.40
76394;BMP180;65216;51.090;-115.352;2023-07-31T03:32:06;87148.20;;;22.40
76394;BMP180;65216;51.090;-115.352;2023-07-31T03:34:33;87142.80;;;22.40
76394;BMP180;65216;51.090;-115.352;2023-07-31T03:37:00;87157.20;;;22.40
76394;BMP180;65216;51.090;-115.352;2023-07-31T03:39:30;87158.40;;;22.38
76394;BMP180;65216;51.090;-115.352;2023-07-31T03:41:57;87153.20;;;22.34
76394;BMP180;65216;51.090;-115.352;2023-07-31T03:44:24;87137.80;;;22.30
76394;BMP180;65216;51.090;-115.352;2023-07-31T03:46:51;87141.80;;;22.30
76394;BMP180;65216;51.090;-115.352;2023-07-31T03:49:18;87163.40;;;22.30
76394;BMP180;65216;51.090;-115.352;2023-07-31T03:51:44;87169.40;;;22.30
76394;BMP180;65216;51.090;-115.352;2023-07-31T03:54:11;87164.80;;;22.30
76394;BMP180;65216;51.090;-115.352;2023-07-31T03:56:39;87160.20;;;22.30
76394;BMP180;65216;51.090;-115.352;2023-07-31T03:59:06;87211.80;;;22.30
76394;BMP180;65216;51.090;-115.352;2023-07-31T04:01:36;87210.00;;;22.30
76394;BMP180;65216;51.090;-115.352;2023-07-31T04:04:03;87163.20;;;22.20
76394;BMP180;65216;51.090;-115.352;2023-07-31T04:06:30;87155.40;;;22.20
76394;BMP180;65216;51.090;-115.352;2023-07-31T04:08:59;87165.80;;;22.20
76394;BMP180;65216;51.090;-115.352;2023-07-31T04:11:26;87146.60;;;22.20
76394;BMP180;65216;51.090;-115.352;2023-07-31T04:13:53;87092.00;;;22.20
76394;BMP180;65216;51.090;-115.352;2023-07-31T04:16:20;87067.00;;;22.20
76394;BMP180;65216;51.090;-115.352;2023-07-31T04:18:47;87099.60;;;22.20
76394;BMP180;65216;51.090;-115.352;2023-07-31T04:21:14;87125.80;;;22.10
76394;BMP180;65216;51.090;-115.352;2023-07-31T04:23:41;87128.40;;;22.10
76394;BMP180;65216;51.090;-115.352;2023-07-31T04:26:10;87127.20;;;22.10
76394;BMP180;65216;51.090;-115.352;2023-07-31T04:28:37;87129.40;;;22.10
76394;BMP180;65216;51.090;-115.352;2023-07-31T04:31:07;87127.60;;;22.10
76394;BMP180;65216;51.090;-115.352;2023-07-31T04:33:37;87130.80;;;22.10
76394;BMP180;65216;51.090;-115.352;2023-07-31T04:36:05;87126.00;;;22.10
76394;BMP180;65216;51.090;-115.352;2023-07-31T04:38:31;87131.80;;;22.10
76394;BMP180;65216;51.090;-115.352;2023-07-31T04:41:01;87130.00;;;22.10
76394;BMP180;65216;51.090;-115.352;2023-07-31T04:43:28;87131.60;;;22.08
76394;BMP180;65216;51.090;-115.352;2023-07-31T04:45:55;87132.40;;;22.00
76394;BMP180;65216;51.090;-115.352;2023-07-31T04:48:22;87131.40;;;22.00
76394;BMP180;65216;51.090;-115.352;2023-07-31T04:50:49;87133.80;;;22.00
76394;BMP180;65216;51.090;-115.352;2023-07-31T04:53:16;87136.20;;;22.00
76394;BMP180;65216;51.090;-115.352;2023-07-31T04:55:43;87140.80;;;22.00
76394;BMP180;65216;51.090;-115.352;2023-07-31T04:58:10;87149.60;;;22.00
76394;BMP180;65216;51.090;-115.352;2023-07-31T05:00:37;87154.60;;;22.00
76394;BMP180;65216;51.090;-115.352;2023-07-31T05:03:04;87151.20;;;22.00
76394;BMP180;65216;51.090;-115.352;2023-07-31T05:05:31;87152.80;;;22.00
76394;BMP180;65216;51.090;-115.352;2023-07-31T05:07:58;87147.00;;;22.00
76394;BMP180;65216;51.090;-115.352;2023-07-31T05:10:25;87138.00;;;21.98
76394;BMP180;65216;51.090;-115.352;2023-07-31T05:12:52;87141.00;;;21.96
76394;BMP180;65216;51.090;-115.352;2023-07-31T05:15:19;87138.80;;;21.96
76394;BMP180;65216;51.090;-115.352;2023-07-31T05:17:46;87144.00;;;21.90
76394;BMP180;65216;51.090;-115.352;2023-07-31T05:20:13;87143.20;;;21.90
76394;BMP180;65216;51.090;-115.352;2023-07-31T05:22:41;87152.60;;;21.90
76394;BMP180;65216;51.090;-115.352;2023-07-31T05:25:08;87156.20;;;21.90
76394;BMP180;65216;51.090;-115.352;2023-07-31T05:27:35;87158.20;;;21.90
76394;BMP180;65216;51.090;-115.352;2023-07-31T05:30:03;87155.20;;;21.90
76394;BMP180;65216;51.090;-115.352;2023-07-31T05:32:33;87156.80;;;21.90
76394;BMP180;65216;51.090;-115.352;2023-07-31T05:35:00;87158.00;;;21.90
76394;BMP180;65216;51.090;-115.352;2023-07-31T05:37:27;87159.80;;;21.90
76394;BMP180;65216;51.090;-115.352;2023-07-31T05:39:57;87160.00;;;21.90
76394;BMP180;65216;51.090;-115.352;2023-07-31T05:42:23;87159.60;;;21.90
76394;BMP180;65216;51.090;-115.352;2023-07-31T05:44:51;87166.80;;;21.90
76394;BMP180;65216;51.090;-115.352;2023-07-31T05:47:17;87166.60;;;21.86
76394;BMP180;65216;51.090;-115.352;2023-07-31T05:49:44;87169.00;;;21.86
76394;BMP180;65216;51.090;-115.352;2023-07-31T05:52:14;87171.20;;;21.82
76394;BMP180;65216;51.090;-115.352;2023-07-31T05:54:44;87173.60;;;21.80
76394;BMP180;65216;51.090;-115.352;2023-07-31T05:57:19;87173.80;;;21.80
76394;BMP180;65216;51.090;-115.352;2023-07-31T05:59:46;87175.20;;;21.80
76394;BMP180;65216;51.090;-115.352;2023-07-31T06:02:13;87177.40;;;21.80
76394;BMP180;65216;51.090;-115.352;2023-07-31T06:04:40;87176.40;;;21.80
76394;BMP180;65216;51.090;-115.352;2023-07-31T06:07:07;87175.40;;;21.80
76394;BMP180;65216;51.090;-115.352;2023-07-31T06:09:34;87172.60;;;21.80
76394;BMP180;65216;51.090;-115.352;2023-07-31T06:12:01;87178.20;;;21.80
76394;BMP180;65216;51.090;-115.352;2023-07-31T06:14:28;87176.00;;;21.80
76394;BMP180;65216;51.090;-115.352;2023-07-31T06:16:55;87173.00;;;21.80
76394;BMP180;65216;51.090;-115.352;2023-07-31T06:19:22;87172.80;;;21.80
76394;BMP180;65216;51.090;-115.352;2023-07-31T06:21:51;87173.40;;;21.80
76394;BMP180;65216;51.090;-115.352;2023-07-31T06:24:18;87171.80;;;21.80
76394;BMP180;65216;51.090;-115.352;2023-07-31T06:26:47;87167.60;;;21.70
76394;BMP180;65216;51.090;-115.352;2023-07-31T06:29:13;87167.20;;;21.70
76394;BMP180;65216;51.090;-115.352;2023-07-31T06:31:41;87166.00;;;21.70
76394;BMP180;65216;51.090;-115.352;2023-07-31T06:34:08;87164.60;;;21.70
76394;BMP180;65216;51.090;-115.352;2023-07-31T06:36:38;87166.00;;;21.70
76394;BMP180;65216;51.090;-115.352;2023-07-31T06:39:05;87168.80;;;21.70
76394;BMP180;65216;51.090;-115.352;2023-07-31T06:41:38;87170.60;;;21.70
76394;BMP180;65216;51.090;-115.352;2023-07-31T06:44:05;87171.60;;;21.70
76394;BMP180;65216;51.090;-115.352;2023-07-31T06:46:32;87171.60;;;21.70
76394;BMP180;65216;51.090;-115.352;2023-07-31T06:48:58;87172.00;;;21.70
76394;BMP180;65216;51.090;-115.352;2023-07-31T06:51:25;87168.40;;;21.70
76394;BMP180;65216;51.090;-115.352;2023-07-31T06:53:52;87171.00;;;21.70
76394;BMP180;65216;51.090;-115.352;2023-07-31T06:56:21;87172.60;;;21.70
76394;BMP180;65216;51.090;-115.352;2023-07-31T06:58:50;87173.80;;;21.70
76394;BMP180;65216;51.090;-115.352;2023-07-31T07:01:17;87178.20;;;21.70
76394;BMP180;65216;51.090;-115.352;2023-07-31T07:03:44;87181.80;;;21.70
76394;BMP180;65216;51.090;-115.352;2023-07-31T07:06:11;87181.00;;;21.70
76394;BMP180;65216;51.090;-115.352;2023-07-31T07:08:38;87178.80;;;21.70
76394;BMP180;65216;51.090;-115.352;2023-07-31T07:11:08;87183.20;;;21.70
76394;BMP180;65216;51.090;-115.352;2023-07-31T07:13:34;87181.00;;;21.70
76394;BMP180;65216;51.090;-115.352;2023-07-31T07:16:04;87181.20;;;21.70
76394;BMP180;65216;51.090;-115.352;2023-07-31T07:18:32;87180.40;;;21.70
76394;BMP180;65216;51.090;-115.352;2023-07-31T07:20:58;87175.60;;;21.70
76394;BMP180;65216;51.090;-115.352;2023-07-31T07:23:28;87182.60;;;21.70
76394;BMP180;65216;51.090;-115.352;2023-07-31T07:25:54;87182.20;;;21.70
76394;BMP180;65216;51.090;-115.352;2023-07-31T07:28:21;87179.40;;;21.70
76394;BMP180;65216;51.090;-115.352;2023-07-31T07:30:52;87181.80;;;21.70
76394;BMP180;65216;51.090;-115.352;2023-07-31T07:33:22;87177.80;;;21.70
76394;BMP180;65216;51.090;-115.352;2023-07-31T07:35:49;87177.00;;;21.70
76394;BMP180;65216;51.090;-115.352;2023-07-31T07:38:19;87178.00;;;21.70
76394;BMP180;65216;51.090;-115.352;2023-07-31T07:40:45;87179.80;;;21.70
76394;BMP180;65216;51.090;-115.352;2023-07-31T07:43:17;87187.00;;;21.70
76394;BMP180;65216;51.090;-115.352;2023-07-31T07:45:43;87190.60;;;21.70
76394;BMP180;65216;51.090;-115.352;2023-07-31T07:48:10;87188.60;;;21.66
76394;BMP180;65216;51.090;-115.352;2023-07-31T07:50:39;87182.60;;;21.64
76394;BMP180;65216;51.090;-115.352;2023-07-31T07:53:06;87188.00;;;21.68
76394;BMP180;65216;51.090;-115.352;2023-07-31T07:55:32;87188.00;;;21.70
76394;BMP180;65216;51.090;-115.352;2023-07-31T07:57:59;87192.20;;;21.68
76394;BMP180;65216;51.090;-115.352;2023-07-31T08:00:26;87193.60;;;21.62
76394;BMP180;65216;51.090;-115.352;2023-07-31T08:02:53;87195.60;;;21.62
76394;BMP180;65216;51.090;-115.352;2023-07-31T08:05:20;87200.60;;;21.60
76394;BMP180;65216;51.090;-115.352;2023-07-31T08:07:47;87203.60;;;21.60
76394;BMP180;65216;51.090;-115.352;2023-07-31T08:10:14;87209.00;;;21.60
76394;BMP180;65216;51.090;-115.352;2023-07-31T08:12:41;87204.40;;;21.60
76394;BMP180;65216;51.090;-115.352;2023-07-31T08:15:08;87205.60;;;21.62
76394;BMP180;65216;51.090;-115.352;2023-07-31T08:17:35;87209.40;;;21.60
76394;BMP180;65216;51.090;-115.352;2023-07-31T08:20:02;87205.60;;;21.60
76394;BMP180;65216;51.090;-115.352;2023-07-31T08:22:30;87201.00;;;21.60
76394;BMP180;65216;51.090;-115.352;2023-07-31T08:25:00;87207.40;;;21.60
76394;BMP180;65216;51.090;-115.352;2023-07-31T08:27:27;87205.60;;;21.60
76394;BMP180;65216;51.090;-115.352;2023-07-31T08:29:53;87205.20;;;21.60
76394;BMP180;65216;51.090;-115.352;2023-07-31T08:32:20;87205.40;;;21.60
76394;BMP180;65216;51.090;-115.352;2023-07-31T08:34:50;87212.40;;;21.60
76394;BMP180;65216;51.090;-115.352;2023-07-31T08:37:17;87206.80;;;21.60
76394;BMP180;65216;51.090;-115.352;2023-07-31T08:39:44;87209.00;;;21.60
76394;BMP180;65216;51.090;-115.352;2023-07-31T08:42:14;87214.40;;;21.60
76394;BMP180;65216;51.090;-115.352;2023-07-31T08:44:41;87218.20;;;21.60
76394;BMP180;65216;51.090;-115.352;2023-07-31T08:47:14;87213.40;;;21.60
76394;BMP180;65216;51.090;-115.352;2023-07-31T08:49:42;87215.40;;;21.60
76394;BMP180;65216;51.090;-115.352;2023-07-31T08:52:11;87214.40;;;21.60
76394;BMP180;65216;51.090;-115.352;2023-07-31T08:54:37;87213.60;;;21.60
76394;BMP180;65216;51.090;-115.352;2023-07-31T08:57:07;87214.00;;;21.60
76394;BMP180;65216;51.090;-115.352;2023-07-31T08:59:35;87213.60;;;21.60
76394;BMP180;65216;51.090;-115.352;2023-07-31T09:02:08;87219.00;;;21.60
76394;BMP180;65216;51.090;-115.352;2023-07-31T09:04:35;87224.20;;;21.60
76394;BMP180;65216;51.090;-115.352;2023-07-31T09:07:06;87225.40;;;21.58
76394;BMP180;65216;51.090;-115.352;2023-07-31T09:09:39;87230.40;;;21.60
76394;BMP180;65216;51.090;-115.352;2023-07-31T09:12:09;87229.20;;;21.60
76394;BMP180;65216;51.090;-115.352;2023-07-31T09:14:39;87231.40;;;21.60
76394;BMP180;65216;51.090;-115.352;2023-07-31T09:17:07;87236.20;;;21.56
76394;BMP180;65216;51.090;-115.352;2023-07-31T09:19:35;87240.80;;;21.56
76394;BMP180;65216;51.090;-115.352;2023-07-31T09:22:06;87239.20;;;21.56
76394;BMP180;65216;51.090;-115.352;2023-07-31T09:24:34;87235.60;;;21.52
76394;BMP180;65216;51.090;-115.352;2023-07-31T09:27:02;87225.00;;;21.50
76394;BMP180;65216;51.090;-115.352;2023-07-31T09:29:30;87231.60;;;21.50
76394;BMP180;65216;51.090;-115.352;2023-07-31T09:31:57;87234.60;;;21.50
76394;BMP180;65216;51.090;-115.352;2023-07-31T09:34:44;87238.00;;;21.50
76394;BMP180;65216;51.090;-115.352;2023-07-31T09:37:11;87238.00;;;21.50
76394;BMP180;65216;51.090;-115.352;2023-07-31T09:39:48;87234.80;;;21.50
76394;BMP180;65216;51.090;-115.352;2023-07-31T09:42:26;87236.80;;;21.50
76394;BMP180;65216;51.090;-115.352;2023-07-31T09:44:53;87236.20;;;21.50
76394;BMP180;65216;51.090;-115.352;2023-07-31T09:47:23;87236.00;;;21.50
76394;BMP180;65216;51.090;-115.352;2023-07-31T09:49:54;87229.40;;;21.46
76394;BMP180;65216;51.090;-115.352;2023-07-31T09:52:20;87229.60;;;21.40
76394;BMP180;65216;51.090;-115.352;2023-07-31T09:54:48;87231.20;;;21.40
76394;BMP180;65216;51.090;-115.352;2023-07-31T09:57:17;87233.40;;;21.40
76394;BMP180;65216;51.090;-115.352;2023-07-31T09:59:47;87232.40;;;21.40
76394;BMP180;65216;51.090;-115.352;2023-07-31T10:02:22;87233.40;;;21.40
76394;BMP180;65216;51.090;-115.352;2023-07-31T10:04:55;87229.80;;;21.40
76394;BMP180;65216;51.090;-115.352;2023-07-31T10:07:30;87237.40;;;21.40
76394;BMP180;65216;51.090;-115.352;2023-07-31T10:10:00;87237.60;;;21.40
76394;BMP180;65216;51.090;-115.352;2023-07-31T10:12:32;87238.40;;;21.34
76394;BMP180;65216;51.090;-115.352;2023-07-31T10:15:01;87236.20;;;21.30
76394;BMP180;65216;51.090;-115.352;2023-07-31T10:17:30;87240.80;;;21.30
76394;BMP180;65216;51.090;-115.352;2023-07-31T10:20:03;87247.00;;;21.30
76394;BMP180;65216;51.090;-115.352;2023-07-31T10:22:34;87250.40;;;21.30
76394;BMP180;65216;51.090;-115.352;2023-07-31T10:25:02;87255.20;;;21.30
76394;BMP180;65216;51.090;-115.352;2023-07-31T10:27:29;87253.20;;;21.30
76394;BMP180;65216;51.090;-115.352;2023-07-31T10:29:58;87254.40;;;21.30
76394;BMP180;65216;51.090;-115.352;2023-07-31T10:32:27;87261.00;;;21.30
76394;BMP180;65216;51.090;-115.352;2023-07-31T10:34:55;87260.80;;;21.30
76394;BMP180;65216;51.090;-115.352;2023-07-31T10:37:45;87258.80;;;21.30
76394;BMP180;65216;51.090;-115.352;2023-07-31T10:40:16;87255.80;;;21.30
76394;BMP180;65216;51.090;-115.352;2023-07-31T10:45:44;87260.60;;;21.30
76394;BMP180;65216;51.090;-115.352;2023-07-31T10:48:16;87258.20;;;21.30
76394;BMP180;65216;51.090;-115.352;2023-07-31T10:50:52;87260.40;;;21.30
76394;BMP180;65216;51.090;-115.352;2023-07-31T10:53:30;87262.20;;;21.30
76394;BMP180;65216;51.090;-115.352;2023-07-31T10:56:06;87263.80;;;21.30
76394;BMP180;65216;51.090;-115.352;2023-07-31T10:58:34;87267.20;;;21.28
76394;BMP180;65216;51.090;-115.352;2023-07-31T11:01:04;87273.60;;;21.24
76394;BMP180;65216;51.090;-115.352;2023-07-31T11:03:46;87273.00;;;21.20
76394;BMP180;65216;51.090;-115.352;2023-07-31T11:06:16;87268.60;;;21.20
76394;BMP180;65216;51.090;-115.352;2023-07-31T11:08:50;87268.20;;;21.20
76394;BMP180;65216;51.090;-115.352;2023-07-31T11:11:20;87268.20;;;21.20
76394;BMP180;65216;51.090;-115.352;2023-07-31T11:13:50;87267.20;;;21.20
76394;BMP180;65216;51.090;-115.352;2023-07-31T11:16:24;87272.00;;;21.20
76394;BMP180;65216;51.090;-115.352;2023-07-31T11:18:53;87277.60;;;21.20
76394;BMP180;65216;51.090;-115.352;2023-07-31T11:21:24;87280.80;;;21.20
76394;BMP180;65216;51.090;-115.352;2023-07-31T11:23:57;87280.80;;;21.20
76394;BMP180;65216;51.090;-115.352;2023-07-31T11:26:25;87281.80;;;21.20
76394;BMP180;65216;51.090;-115.352;2023-07-31T11:28:52;87280.60;;;21.18
76394;BMP180;65216;51.090;-115.352;2023-07-31T11:31:19;87282.60;;;21.12
76394;BMP180;65216;51.090;-115.352;2023-07-31T11:33:46;87274.60;;;21.10
76394;BMP180;65216;51.090;-115.352;2023-07-31T11:36:19;87278.00;;;21.10
76394;BMP180;65216;51.090;-115.352;2023-07-31T11:38:46;87284.40;;;21.10
76394;BMP180;65216;51.090;-115.352;2023-07-31T11:41:15;87285.20;;;21.10
76394;BMP180;65216;51.090;-115.352;2023-07-31T11:43:43;87283.60;;;21.10
76394;BMP180;65216;51.090;-115.352;2023-07-31T11:46:10;87283.60;;;21.10
76394;BMP180;65216;51.090;-115.352;2023-07-31T11:48:38;87280.60;;;21.10
76394;BMP180;65216;51.090;-115.352;2023-07-31T11:51:10;87284.00;;;21.10
76394;BMP180;65216;51.090;-115.352;2023-07-31T11:56:11;87282.00;;;21.10
76394;BMP180;65216;51.090;-115.352;2023-07-31T11:58:46;87284.20;;;21.10
76394;BMP180;65216;51.090;-115.352;2023-07-31T12:01:16;87288.40;;;21.10
76394;BMP180;65216;51.090;-115.352;2023-07-31T12:03:44;87287.20;;;21.10
76394;BMP180;65216;51.090;-115.352;2023-07-31T12:06:11;87296.20;;;21.10
76394;BMP180;65216;51.090;-115.352;2023-07-31T12:08:38;87295.00;;;21.10
76394;BMP180;65216;51.090;-115.352;2023-07-31T12:11:08;87294.00;;;21.10
76394;BMP180;65216;51.090;-115.352;2023-07-31T12:13:40;87296.40;;;21.10
76394;BMP180;65216;51.090;-115.352;2023-07-31T12:16:07;87296.60;;;21.10
76394;BMP180;65216;51.090;-115.352;2023-07-31T12:18:37;87294.20;;;21.10
76394;BMP180;65216;51.090;-115.352;2023-07-31T12:21:09;87296.20;;;21.10
76394;BMP180;65216;51.090;-115.352;2023-07-31T12:23:38;87298.60;;;21.10
76394;BMP180;65216;51.090;-115.352;2023-07-31T12:26:13;87292.00;;;21.10
76394;BMP180;65216;51.090;-115.352;2023-07-31T12:28:48;87298.80;;;21.08
76394;BMP180;65216;51.090;-115.352;2023-07-31T12:31:22;87299.00;;;21.04
76394;BMP180;65216;51.090;-115.352;2023-07-31T12:33:51;87302.20;;;21.04
76394;BMP180;65216;51.090;-115.352;2023-07-31T12:36:23;87302.20;;;21.04
76394;BMP180;65216;51.090;-115.352;2023-07-31T12:38:55;87300.60;;;21.06
76394;BMP180;65216;51.090;-115.352;2023-07-31T12:41:24;87295.60;;;21.00
76394;BMP180;65216;51.090;-115.352;2023-07-31T12:43:51;87297.60;;;21.00
76394;BMP180;65216;51.090;-115.352;2023-07-31T12:46:18;87294.40;;;21.00
76394;BMP180;65216;51.090;-115.352;2023-07-31T12:48:45;87290.60;;;21.00
76394;BMP180;65216;51.090;-115.352;2023-07-31T12:51:12;87289.80;;;21.00
76394;BMP180;65216;51.090;-115.352;2023-07-31T12:53:39;87298.80;;;21.00
76394;BMP180;65216;51.090;-115.352;2023-07-31T12:56:06;87299.60;;;21.00
76394;BMP180;65216;51.090;-115.352;2023-07-31T12:58:33;87294.00;;;21.00
76394;BMP180;65216;51.090;-115.352;2023-07-31T13:01:00;87300.60;;;21.00
76394;BMP180;65216;51.090;-115.352;2023-07-31T13:03:28;87302.20;;;21.08
76394;BMP180;65216;51.090;-115.352;2023-07-31T13:05:55;87305.80;;;21.10
76394;BMP180;65216;51.090;-115.352;2023-07-31T13:08:22;87302.00;;;21.10
76394;BMP180;65216;51.090;-115.352;2023-07-31T13:10:49;87306.00;;;21.10
76394;BMP180;65216;51.090;-115.352;2023-07-31T13:13:16;87303.80;;;21.10
76394;BMP180;65216;51.090;-115.352;2023-07-31T13:15:44;87304.40;;;21.10
76394;BMP180;65216;51.090;-115.352;2023-07-31T13:18:11;87297.60;;;21.10
76394;BMP180;65216;51.090;-115.352;2023-07-31T13:20:41;87303.20;;;21.10
76394;BMP180;65216;51.090;-115.352;2023-07-31T13:23:10;87312.00;;;21.10
76394;BMP180;65216;51.090;-115.352;2023-07-31T13:25:40;87308.60;;;21.10
76394;BMP180;65216;51.090;-115.352;2023-07-31T13:28:07;87310.80;;;21.10
76394;BMP180;65216;51.090;-115.352;2023-07-31T13:30:34;87311.80;;;21.10
76394;BMP180;65216;51.090;-115.352;2023-07-31T13:33:01;87304.20;;;21.10
76394;BMP180;65216;51.090;-115.352;2023-07-31T13:35:28;87306.80;;;21.10
76394;BMP180;65216;51.090;-115.352;2023-07-31T13:37:57;87311.80;;;21.10
76394;BMP180;65216;51.090;-115.352;2023-07-31T13:40:26;87312.20;;;21.10
76394;BMP180;65216;51.090;-115.352;2023-07-31T13:42:53;87319.00;;;21.10
76394;BMP180;65216;51.090;-115.352;2023-07-31T13:45:22;87309.40;;;21.10
76394;BMP180;65216;51.090;-115.352;2023-07-31T13:47:53;87316.20;;;21.10
76394;BMP180;65216;51.090;-115.352;2023-07-31T13:50:20;87323.20;;;21.10
76394;BMP180;65216;51.090;-115.352;2023-07-31T13:52:51;87322.40;;;21.12
76394;BMP180;65216;51.090;-115.352;2023-07-31T13:55:22;87316.20;;;21.20